Terminal Aerodrome Forecast
Issued by NWS

Home | Current Version | Previous Version | Text Only | Print | Product List | Glossary On
Versions: 1 2 3 4 5 6 7 8 9 10 11 12 13 14 15 16 17
000
FTAK31 PAJN 282300
TAFAKT
TAF
PAKT 282324Z 2900/2924 14010KT P6SM VCSH BKN025 OVC035
     FM290800 14012G20KT P6SM -RA SCT020 OVC040
     FM291200 14015G25KT 6SM -RA SCT010 OVC020
     FM291700 14012G20KT 5SM -SHRA VCTS OVC020CB
      AMD LTD TO CLD VIS AND WIND 2906/2915=

USA.gov is the U.S. government's official web portal to all federal, state and local government web resources and services.